createdAt,value
2024-02-04T00:01:01.162Z,1.25
2024-02-04T00:03:27.771Z,1.30
2024-02-04T00:05:54.375Z,1.10
2024-02-04T00:08:20.821Z,1.10
2024-02-04T00:10:47.259Z,1.25
2024-02-04T00:13:13.681Z,1.20
2024-02-04T00:15:40.204Z,1.08
2024-02-04T00:18:07.574Z,1.10
2024-02-04T00:20:34.040Z,1.15
2024-02-04T00:23:00.555Z,1.05
2024-02-04T00:25:27.364Z,1.00
2024-02-04T00:27:53.907Z,1.10
2024-02-04T00:30:20.400Z,1.00
2024-02-04T00:32:46.970Z,1.10
2024-02-04T00:35:13.569Z,1.17
2024-02-04T00:37:40.462Z,1.08
2024-02-04T00:40:07.616Z,1.00
2024-02-04T00:42:34.076Z,1.20
2024-02-04T00:45:00.613Z,1.02
2024-02-04T00:47:27.142Z,1.00
2024-02-04T00:49:55.047Z,1.20
2024-02-04T00:52:21.514Z,0.80
2024-02-04T00:54:48.032Z,0.95
2024-02-04T00:57:14.530Z,1.02
2024-02-04T00:59:40.944Z,1.10
2024-02-04T01:02:07.662Z,0.85
2024-02-04T01:04:34.296Z,0.90
2024-02-04T01:07:02.083Z,0.80
2024-02-04T01:09:31.970Z,1.10
2024-02-04T01:11:58.694Z,1.00
2024-02-04T01:14:25.230Z,0.65
2024-02-04T01:16:51.681Z,0.80
2024-02-04T01:19:18.358Z,0.90
2024-02-04T01:21:45.878Z,0.77
2024-02-04T01:24:12.536Z,0.98
2024-02-04T01:26:38.971Z,0.77
2024-02-04T01:29:05.395Z,0.80
2024-02-04T01:31:32.056Z,0.75
2024-02-04T01:33:58.603Z,0.70
2024-02-04T01:36:25.166Z,0.80
2024-02-04T01:38:51.621Z,0.70
2024-02-04T01:41:18.170Z,0.60
2024-02-04T01:43:44.613Z,0.75
2024-02-04T01:46:11.917Z,0.80
2024-02-04T01:48:38.786Z,0.82
2024-02-04T01:51:06.667Z,0.60
2024-02-04T01:53:35.218Z,0.70
2024-02-04T01:58:28.200Z,0.70
2024-02-04T02:00:54.913Z,0.60
2024-02-04T02:03:22.800Z,0.70
2024-02-04T02:05:50.150Z,0.60
2024-02-04T02:08:17.336Z,0.80
2024-02-04T02:10:48.023Z,0.80
2024-02-04T02:13:23.216Z,0.80
2024-02-04T02:18:31.553Z,0.70
2024-02-04T02:21:20.003Z,0.70
2024-02-04T02:24:17.069Z,0.85
2024-02-04T02:26:44.645Z,0.60
2024-02-04T02:29:11.120Z,0.80
2024-02-04T02:31:46.688Z,0.82
2024-02-04T02:34:26.938Z,0.80
2024-02-04T02:37:13.680Z,0.63
2024-02-04T02:40:13.949Z,0.70
2024-02-04T02:42:44.435Z,0.60
2024-02-04T02:45:12.867Z,0.80
2024-02-04T02:47:40.881Z,0.70
2024-02-04T02:50:08.811Z,0.73
2024-02-04T02:52:35.253Z,0.80
2024-02-04T02:55:01.837Z,0.88
2024-02-04T02:57:28.394Z,0.75
2024-02-04T02:59:54.863Z,0.80
2024-02-04T03:02:21.286Z,0.80
2024-02-04T03:04:47.830Z,0.90
2024-02-04T03:07:14.269Z,0.80
2024-02-04T03:09:40.793Z,0.70
2024-02-04T03:12:07.668Z,1.10
2024-02-04T03:14:34.210Z,0.95
2024-02-04T03:17:00.636Z,0.98
2024-02-04T03:19:27.104Z,0.98
2024-02-04T03:21:53.602Z,1.10
2024-02-04T03:24:20.041Z,1.20
2024-02-04T03:26:46.461Z,1.20
2024-02-04T03:29:12.851Z,1.33
2024-02-04T03:31:39.305Z,1.30
2024-02-04T03:34:05.870Z,1.50
2024-02-04T03:36:32.935Z,1.20
2024-02-04T03:38:59.407Z,1.40
2024-02-04T03:41:26.115Z,1.40
2024-02-04T03:43:52.714Z,1.30
2024-02-04T03:46:19.189Z,1.20
2024-02-04T03:48:46.056Z,1.50
2024-02-04T03:51:19.671Z,1.25
2024-02-04T03:53:46.912Z,1.40
2024-02-04T03:56:13.470Z,1.30
2024-02-04T03:58:39.937Z,1.17
2024-02-04T04:01:06.560Z,1.23
2024-02-04T04:03:33.198Z,1.58
2024-02-04T04:06:00.029Z,1.42
2024-02-04T04:08:26.626Z,1.42
2024-02-04T04:10:53.112Z,1.90
2024-02-04T04:13:19.590Z,1.60
2024-02-04T04:15:46.136Z,1.60
2024-02-04T04:18:14.087Z,1.70
2024-02-04T04:20:41.739Z,1.80
2024-02-04T04:23:08.495Z,1.85
2024-02-04T04:25:35.147Z,1.70
2024-02-04T04:28:01.825Z,1.40
2024-02-04T04:30:28.369Z,1.60
2024-02-04T04:32:56.249Z,1.40
2024-02-04T04:35:22.742Z,1.50
2024-02-04T04:37:49.195Z,1.48
2024-02-04T04:40:15.869Z,1.42
2024-02-04T04:42:42.433Z,1.65
2024-02-04T04:45:09.175Z,1.35
2024-02-04T04:47:35.964Z,1.42
2024-02-04T04:50:02.605Z,1.30
2024-02-04T04:52:29.268Z,1.60
2024-02-04T04:54:56.216Z,1.67
2024-02-04T04:57:22.720Z,1.55
2024-02-04T04:59:49.245Z,1.40
2024-02-04T05:02:15.834Z,1.27
2024-02-04T05:04:49.117Z,1.67
2024-02-04T05:07:15.895Z,1.60
2024-02-04T05:09:42.520Z,1.25
2024-02-04T05:12:09.830Z,1.42
2024-02-04T05:14:36.484Z,1.35
2024-02-04T05:17:02.976Z,1.40
2024-02-04T05:19:29.499Z,1.30
2024-02-04T05:21:56.083Z,1.08
2024-02-04T05:24:22.578Z,1.15
2024-02-04T05:26:48.998Z,1.20
2024-02-04T05:29:15.475Z,1.20
2024-02-04T05:31:45.049Z,1.02
2024-02-04T05:34:12.244Z,1.00
2024-02-04T05:36:39.436Z,1.00
2024-02-04T05:39:16.889Z,0.85
2024-02-04T05:41:44.122Z,0.85
2024-02-04T05:44:10.884Z,0.75
2024-02-04T05:46:37.718Z,0.73
2024-02-04T05:49:04.608Z,0.60
2024-02-04T05:51:34.219Z,0.80
2024-02-04T05:54:00.771Z,0.50
2024-02-04T05:56:27.352Z,0.63
2024-02-04T05:58:53.807Z,0.75
2024-02-04T06:01:20.272Z,0.70
2024-02-04T06:03:46.773Z,0.60
2024-02-04T06:06:17.358Z,0.80
2024-02-04T06:08:44.353Z,0.40
2024-02-04T06:11:12.248Z,0.52
2024-02-04T06:13:41.381Z,0.30
2024-02-04T06:16:08.248Z,0.43
2024-02-04T06:18:37.928Z,0.50
2024-02-04T06:21:07.937Z,0.50
2024-02-04T06:23:34.684Z,0.60
2024-02-04T06:26:02.086Z,0.40
2024-02-04T06:28:28.715Z,0.45
2024-02-04T06:30:56.108Z,0.40
2024-02-04T06:33:24.428Z,0.52
2024-02-04T06:35:51.484Z,0.43
2024-02-04T06:38:18.065Z,0.60
2024-02-04T06:40:44.664Z,0.50
2024-02-04T06:43:11.201Z,0.55
2024-02-04T06:45:37.701Z,0.60
2024-02-04T06:48:04.610Z,0.63
2024-02-04T06:50:31.100Z,0.50
2024-02-04T06:52:57.550Z,0.60
2024-02-04T06:55:24.003Z,0.50
2024-02-04T06:57:50.569Z,0.90
2024-02-04T07:00:17.356Z,0.57
2024-02-04T07:02:43.795Z,0.52
2024-02-04T07:05:11.818Z,0.70
2024-02-04T07:07:39.610Z,0.60
2024-02-04T07:10:07.150Z,0.60
2024-02-04T07:12:33.723Z,0.60
2024-02-04T07:15:00.505Z,0.50
2024-02-04T07:17:27.098Z,0.60
2024-02-04T07:19:53.693Z,0.70
2024-02-04T07:22:20.210Z,0.50
2024-02-04T07:24:46.755Z,0.45
2024-02-04T07:27:13.301Z,0.63
2024-02-04T07:29:39.754Z,0.30
2024-02-04T07:32:06.269Z,0.50
2024-02-04T07:34:32.910Z,0.70
2024-02-04T07:36:59.605Z,0.35
2024-02-04T07:39:26.180Z,0.50
2024-02-04T07:41:54.875Z,0.60
2024-02-04T07:44:21.320Z,0.60
2024-02-04T07:46:48.181Z,1.02
2024-02-04T07:49:14.811Z,0.50
2024-02-04T07:51:41.346Z,0.70
2024-02-04T07:54:07.842Z,0.60
2024-02-04T07:56:34.260Z,0.80
2024-02-04T07:59:00.825Z,0.50
2024-02-04T08:01:27.358Z,0.45
2024-02-04T08:03:54.331Z,0.30
2024-02-04T08:06:20.802Z,0.60
2024-02-04T08:08:51.534Z,0.30
2024-02-04T08:11:19.804Z,0.32
2024-02-04T08:13:46.412Z,0.40
2024-02-04T08:16:13.162Z,0.50
2024-02-04T08:18:41.217Z,0.60
2024-02-04T08:21:07.786Z,0.57
2024-02-04T08:23:34.619Z,0.40
2024-02-04T08:26:01.142Z,0.50
2024-02-04T08:28:27.749Z,0.30
2024-02-04T08:30:54.333Z,0.40
2024-02-04T08:33:21.022Z,0.40
2024-02-04T08:35:47.665Z,0.50
2024-02-04T08:38:14.133Z,0.22
2024-02-04T08:40:40.580Z,0.40
2024-02-04T08:43:07.263Z,0.68
2024-02-04T08:45:33.777Z,0.40
2024-02-04T08:48:00.506Z,0.40
2024-02-04T08:50:27.042Z,0.63
2024-02-04T08:52:53.525Z,0.52
2024-02-04T08:55:20.047Z,0.60
2024-02-04T08:57:46.692Z,0.50
2024-02-04T09:00:13.713Z,0.55
2024-02-04T09:02:41.120Z,0.77
2024-02-04T09:05:07.992Z,0.50
2024-02-04T09:07:34.902Z,0.43
2024-02-04T09:10:01.692Z,0.70
2024-02-04T09:12:28.440Z,0.40
2024-02-04T09:14:54.914Z,0.43
2024-02-04T09:17:21.398Z,0.70
2024-02-04T09:19:48.121Z,0.70
2024-02-04T09:22:15.062Z,0.60
2024-02-04T09:24:41.665Z,0.60
2024-02-04T09:27:08.321Z,0.60
2024-02-04T09:29:34.865Z,0.57
2024-02-04T09:32:01.668Z,0.45
2024-02-04T09:34:28.564Z,0.63
2024-02-04T09:36:55.392Z,0.57
2024-02-04T09:39:21.982Z,0.52
2024-02-04T09:41:48.427Z,0.82
2024-02-04T09:44:19.028Z,0.70
2024-02-04T09:46:46.082Z,0.50
2024-02-04T09:49:14.550Z,0.50
2024-02-04T09:54:12.384Z,0.40
2024-02-04T09:56:39.647Z,0.80
2024-02-04T09:59:06.456Z,0.52
2024-02-04T10:01:33.484Z,0.30
2024-02-04T10:04:00.557Z,0.40
2024-02-04T10:06:27.552Z,0.50
2024-02-04T10:08:54.693Z,0.45
2024-02-04T10:11:21.540Z,0.30
2024-02-04T10:13:51.125Z,0.40
2024-02-04T10:16:18.630Z,0.30
2024-02-04T10:18:46.571Z,0.47
2024-02-04T10:21:18.797Z,0.40
2024-02-04T10:23:45.281Z,0.40
2024-02-04T10:26:12.257Z,0.20
2024-02-04T10:28:40.444Z,0.30
2024-02-04T10:31:07.007Z,0.35
2024-02-04T10:33:33.640Z,0.47
2024-02-04T10:36:00.205Z,0.30
2024-02-04T10:38:26.714Z,0.30
2024-02-04T10:40:55.362Z,0.40
2024-02-04T10:45:49.136Z,0.68
2024-02-04T10:48:21.246Z,0.45
2024-02-04T10:50:49.939Z,0.20
2024-02-04T10:53:18.133Z,0.43
2024-02-04T10:55:47.755Z,0.40
2024-02-04T10:58:18.001Z,0.30
2024-02-04T11:00:45.215Z,0.60
2024-02-04T11:03:13.383Z,0.65
2024-02-04T11:05:42.600Z,0.50
2024-02-04T11:08:11.906Z,0.20
2024-02-04T11:10:39.934Z,0.25
2024-02-04T11:13:09.605Z,0.40
2024-02-04T11:15:38.556Z,1.00
2024-02-04T11:18:25.739Z,1.30
2024-02-04T11:21:19.952Z,0.70
2024-02-04T11:23:58.880Z,0.20
2024-02-04T11:26:26.438Z,0.40
2024-02-04T11:28:53.330Z,0.38
2024-02-04T11:31:20.175Z,0.50
2024-02-04T11:33:47.187Z,0.32
2024-02-04T11:36:15.816Z,0.25
2024-02-04T11:41:09.568Z,0.70
2024-02-04T11:43:41.740Z,0.60
2024-02-04T11:46:17.756Z,0.60
2024-02-04T11:48:54.899Z,0.70
2024-02-04T11:51:25.828Z,1.02
2024-02-04T11:53:52.632Z,0.75
2024-02-04T11:56:20.074Z,0.90
2024-02-04T11:58:47.717Z,0.65
2024-02-04T12:01:14.301Z,0.60
2024-02-04T12:03:40.909Z,0.60
2024-02-04T12:06:07.599Z,0.55
2024-02-04T12:08:35.248Z,0.43
2024-02-04T12:11:02.695Z,0.35
2024-02-04T12:13:30.132Z,0.50
2024-02-04T12:15:56.756Z,0.32
2024-02-04T12:18:23.312Z,0.43
2024-02-04T12:20:52.351Z,0.35
2024-02-04T12:23:20.049Z,0.50
2024-02-04T12:25:47.334Z,0.40
2024-02-04T12:28:15.076Z,0.32
2024-02-04T12:30:41.617Z,0.60
2024-02-04T12:33:08.428Z,0.47
2024-02-04T12:35:35.101Z,0.40
2024-02-04T12:38:01.833Z,0.43
2024-02-04T12:40:30.067Z,0.50
2024-02-04T12:43:05.738Z,0.47
2024-02-04T12:45:33.785Z,0.40
2024-02-04T12:48:00.359Z,0.85
2024-02-04T12:50:27.506Z,0.40
2024-02-04T12:53:16.457Z,0.30
2024-02-04T12:55:44.059Z,0.28
2024-02-04T12:58:15.956Z,0.40
2024-02-04T13:00:42.656Z,0.30
2024-02-04T13:03:10.054Z,0.43
2024-02-04T13:05:38.329Z,0.55
2024-02-04T13:08:06.925Z,0.30
2024-02-04T13:10:35.380Z,0.45
2024-02-04T13:13:10.209Z,0.63
2024-02-04T13:15:41.183Z,0.57
2024-02-04T13:18:09.681Z,0.40
2024-02-04T13:20:36.345Z,0.50
2024-02-04T13:23:05.892Z,0.40
2024-02-04T13:25:33.053Z,0.55
2024-02-04T13:27:59.784Z,0.40
2024-02-04T13:30:26.367Z,0.40
2024-02-04T13:32:53.339Z,0.30
2024-02-04T13:35:20.899Z,0.50
2024-02-04T13:37:49.758Z,1.35
2024-02-04T13:40:16.997Z,0.40
2024-02-04T13:42:44.310Z,0.47
2024-02-04T13:45:11.380Z,0.35
2024-02-04T13:47:38.505Z,0.40
2024-02-04T13:50:05.666Z,0.35
2024-02-04T13:52:32.449Z,0.40
2024-02-04T13:54:59.055Z,0.32
2024-02-04T13:57:25.602Z,0.47
2024-02-04T13:59:52.298Z,0.40
2024-02-04T14:02:18.832Z,0.52
2024-02-04T14:04:45.484Z,0.50
2024-02-04T14:07:13.209Z,0.50
2024-02-04T14:09:39.768Z,0.70
2024-02-04T14:12:06.532Z,0.50
2024-02-04T14:14:33.131Z,0.55
2024-02-04T14:16:59.604Z,0.30
2024-02-04T14:19:26.272Z,0.50
2024-02-04T14:21:52.960Z,0.50
2024-02-04T14:24:19.603Z,0.30
2024-02-04T14:26:46.064Z,0.40
2024-02-04T14:29:12.714Z,0.50
2024-02-04T14:31:39.149Z,0.50
2024-02-04T14:34:06.071Z,0.57
2024-02-04T14:36:32.696Z,0.50
2024-02-04T14:38:59.135Z,0.80
2024-02-04T14:41:25.561Z,0.60
2024-02-04T14:43:51.976Z,0.80
2024-02-04T14:46:18.679Z,0.73
2024-02-04T14:48:45.632Z,0.60
2024-02-04T14:51:12.391Z,0.80
2024-02-04T14:53:39.141Z,0.60
2024-02-04T14:56:05.788Z,0.60
2024-02-04T14:58:32.212Z,0.80
2024-02-04T15:00:59.339Z,1.20
2024-02-04T15:03:25.954Z,0.70
2024-02-04T15:05:52.460Z,0.80
2024-02-04T15:08:19.060Z,0.60
2024-02-04T15:10:45.478Z,0.70
2024-02-04T15:13:12.320Z,0.68
2024-02-04T15:15:39.517Z,0.60
2024-02-04T15:18:07.756Z,0.70
2024-02-04T15:20:34.564Z,0.70
2024-02-04T15:23:02.275Z,0.65
2024-02-04T15:25:29.313Z,0.60
2024-02-04T15:27:57.415Z,0.80
2024-02-04T15:30:24.020Z,0.70
2024-02-04T15:32:53.007Z,0.68
2024-02-04T15:35:19.890Z,0.70
2024-02-04T15:37:47.886Z,0.73
2024-02-04T15:40:14.721Z,0.55
2024-02-04T15:42:42.202Z,0.63
2024-02-04T15:45:09.769Z,0.70
2024-02-04T15:47:41.553Z,0.70
2024-02-04T15:50:09.735Z,0.60
2024-02-04T15:52:36.442Z,0.60
2024-02-04T15:55:05.826Z,0.60
2024-02-04T15:57:36.296Z,0.70
2024-02-04T16:00:18.578Z,0.60
2024-02-04T16:02:51.852Z,0.70
2024-02-04T16:05:19.589Z,0.70
2024-02-04T16:07:47.503Z,0.70
2024-02-04T16:10:19.558Z,0.80
2024-02-04T16:13:00.872Z,0.88
2024-02-04T16:15:28.897Z,0.80
2024-02-04T16:17:56.657Z,0.68
2024-02-04T16:20:24.452Z,0.90
2024-02-04T16:22:51.038Z,0.80
2024-02-04T16:25:18.747Z,0.70
2024-02-04T16:27:48.254Z,0.80
2024-02-04T16:30:14.850Z,0.90
2024-02-04T16:32:41.399Z,0.90
2024-02-04T16:35:08.803Z,1.15
2024-02-04T16:37:35.652Z,0.77
2024-02-04T16:40:02.229Z,0.80
2024-02-04T16:42:31.418Z,0.70
2024-02-04T16:44:58.049Z,0.95
2024-02-04T16:47:24.538Z,0.80
2024-02-04T16:49:51.227Z,1.00
2024-02-04T16:52:17.806Z,0.80
2024-02-04T16:54:45.159Z,0.90
2024-02-04T16:57:13.312Z,0.90
2024-02-04T16:59:46.120Z,1.10
2024-02-04T17:02:19.543Z,0.85
2024-02-04T17:04:50.446Z,0.82
2024-02-04T17:07:20.873Z,1.00
2024-02-04T17:09:54.352Z,0.95
2024-02-04T17:12:21.391Z,1.13
2024-02-04T17:14:48.178Z,1.00
2024-02-04T17:17:18.695Z,1.00
2024-02-04T17:20:12.140Z,0.90
2024-02-04T17:22:40.553Z,0.90
2024-02-04T17:25:09.158Z,1.08
2024-02-04T17:30:09.202Z,1.02
2024-02-04T17:32:38.057Z,1.27
2024-02-04T17:35:05.879Z,0.98
2024-02-04T17:37:33.540Z,0.90
2024-02-04T17:40:00.313Z,1.13
2024-02-04T17:42:29.948Z,1.00
2024-02-04T17:44:57.228Z,0.95
2024-02-04T17:47:27.366Z,0.98
2024-02-04T17:49:58.950Z,1.00
2024-02-04T17:52:26.467Z,0.90
2024-02-04T17:54:54.756Z,0.90
2024-02-04T17:57:21.710Z,0.75
2024-02-04T17:59:48.558Z,0.82
2024-02-04T18:02:14.999Z,1.08
2024-02-04T18:04:42.302Z,1.00
2024-02-04T18:07:09.673Z,0.90
2024-02-04T18:09:39.963Z,1.00
2024-02-04T18:12:07.702Z,1.10
2024-02-04T18:14:34.208Z,1.10
2024-02-04T18:17:06.923Z,1.08
2024-02-04T18:19:33.997Z,0.95
2024-02-04T18:22:00.548Z,0.90
2024-02-04T18:24:27.243Z,1.15
2024-02-04T18:26:53.734Z,1.00
2024-02-04T18:29:20.921Z,1.20
2024-02-04T18:31:48.296Z,0.80
2024-02-04T18:34:15.248Z,0.90
2024-02-04T18:36:42.537Z,1.10
2024-02-04T18:39:09.033Z,0.90
2024-02-04T18:41:40.638Z,1.00
2024-02-04T18:44:07.830Z,0.90
2024-02-04T18:46:34.288Z,0.90
2024-02-04T18:49:02.472Z,0.80
2024-02-04T18:51:29.622Z,0.77
2024-02-04T18:53:56.067Z,0.80
2024-02-04T18:56:22.859Z,0.77
2024-02-04T18:58:51.976Z,0.85
2024-02-04T19:01:20.896Z,0.90
2024-02-04T19:03:49.194Z,0.90
2024-02-04T19:06:27.010Z,0.93
2024-02-04T19:08:53.513Z,0.90
2024-02-04T19:11:20.464Z,0.80
2024-02-04T19:13:47.582Z,2.20
2024-02-04T19:16:24.525Z,1.15
2024-02-04T19:18:51.811Z,0.80
2024-02-04T19:21:18.935Z,1.10
2024-02-04T19:23:45.665Z,1.60
2024-02-04T19:26:14.257Z,1.27
2024-02-04T19:28:40.875Z,1.17
2024-02-04T19:31:12.047Z,0.80
2024-02-04T19:33:39.228Z,1.00
2024-02-04T19:36:06.420Z,0.82
2024-02-04T19:38:33.485Z,1.15
2024-02-04T19:40:59.954Z,1.20
2024-02-04T19:43:30.488Z,1.23
2024-02-04T19:45:58.420Z,1.05
2024-02-04T19:48:26.758Z,1.00
2024-02-04T19:50:53.244Z,0.75
2024-02-04T19:53:19.700Z,1.20
2024-02-04T19:55:46.244Z,1.30
2024-02-04T19:58:12.750Z,1.30
2024-02-04T20:00:39.375Z,1.20
2024-02-04T20:03:07.127Z,0.70
2024-02-04T20:05:33.865Z,0.85
2024-02-04T20:08:00.509Z,0.90
2024-02-04T20:10:27.140Z,0.75
2024-02-04T20:12:53.642Z,0.80
2024-02-04T20:15:25.481Z,0.63
2024-02-04T20:17:52.391Z,0.80
2024-02-04T20:20:20.751Z,0.90
2024-02-04T20:22:47.361Z,0.80
2024-02-04T20:25:14.162Z,1.00
2024-02-04T20:27:40.930Z,0.90
2024-02-04T20:30:08.181Z,0.63
2024-02-04T20:32:34.990Z,0.80
2024-02-04T20:35:01.542Z,1.10
2024-02-04T20:37:30.327Z,1.10
2024-02-04T20:42:23.258Z,0.80
2024-02-04T20:44:49.686Z,0.90
2024-02-04T20:47:16.146Z,0.70
2024-02-04T20:49:42.630Z,0.88
2024-02-04T20:52:09.148Z,1.00
2024-02-04T20:54:35.680Z,1.00
2024-02-04T20:57:02.209Z,1.10
2024-02-04T20:59:28.626Z,0.90
2024-02-04T21:01:55.286Z,1.00
2024-02-04T21:04:21.871Z,0.73
2024-02-04T21:06:48.449Z,0.80
2024-02-04T21:09:15.224Z,0.90
2024-02-04T21:11:41.666Z,0.80
2024-02-04T21:14:08.105Z,0.80
2024-02-04T21:16:34.536Z,0.75
2024-02-04T21:19:02.798Z,0.70
2024-02-04T21:21:29.346Z,1.00
2024-02-04T21:23:55.777Z,0.82
2024-02-04T21:26:22.362Z,0.70
2024-02-04T21:28:48.834Z,0.80
2024-02-04T21:31:15.499Z,0.55
2024-02-04T21:33:42.734Z,0.70
2024-02-04T21:36:11.418Z,1.48
2024-02-04T21:38:39.938Z,0.50
2024-02-04T21:41:06.541Z,0.73
2024-02-04T21:43:32.977Z,0.90
2024-02-04T21:45:59.867Z,1.88
2024-02-04T21:48:26.541Z,0.80
2024-02-04T21:50:53.084Z,1.00
2024-02-04T21:53:19.514Z,1.25
2024-02-04T21:55:45.957Z,1.02
2024-02-04T21:58:12.624Z,0.60
2024-02-04T22:00:39.447Z,0.60
2024-02-04T22:03:06.291Z,1.52
2024-02-04T22:05:37.528Z,0.80
2024-02-04T22:08:04.937Z,0.60
2024-02-04T22:10:32.009Z,0.77
2024-02-04T22:12:58.537Z,0.70
2024-02-04T22:15:25.062Z,0.82
2024-02-04T22:17:51.882Z,0.80
2024-02-04T22:20:18.502Z,0.70
2024-02-04T22:22:44.992Z,0.80
2024-02-04T22:25:15.176Z,0.60
2024-02-04T22:27:42.128Z,0.50
2024-02-04T22:30:09.164Z,0.93
2024-02-04T22:32:35.820Z,0.75
2024-02-04T22:35:02.560Z,0.43
2024-02-04T22:37:29.365Z,0.50
2024-02-04T22:39:56.115Z,0.68
2024-02-04T22:42:22.728Z,0.70
2024-02-04T22:44:49.169Z,1.80
2024-02-04T22:47:16.307Z,0.60
2024-02-04T22:49:43.042Z,0.65
2024-02-04T22:52:10.205Z,1.15
2024-02-04T22:54:36.753Z,0.50
2024-02-04T22:57:03.511Z,1.25
2024-02-04T22:59:32.178Z,0.70
2024-02-04T23:04:26.212Z,0.50
2024-02-04T23:06:52.803Z,0.60
2024-02-04T23:09:19.507Z,0.60
2024-02-04T23:11:46.005Z,0.70
2024-02-04T23:14:12.499Z,0.50
2024-02-04T23:16:38.983Z,0.40
2024-02-04T23:19:05.894Z,0.50
2024-02-04T23:21:32.833Z,0.40
2024-02-04T23:23:59.281Z,0.50
2024-02-04T23:26:25.701Z,0.45
2024-02-04T23:28:52.167Z,0.50
2024-02-04T23:31:18.698Z,0.50
2024-02-04T23:33:46.913Z,0.50
2024-02-04T23:36:16.687Z,0.50
2024-02-04T23:38:43.045Z,0.40
2024-02-04T23:41:09.472Z,0.50
2024-02-04T23:43:35.898Z,0.35
2024-02-04T23:46:02.683Z,0.50
2024-02-04T23:48:29.647Z,0.60
2024-02-04T23:50:56.197Z,0.70
2024-02-04T23:53:22.933Z,0.60
2024-02-04T23:55:49.420Z,0.60
2024-02-04T23:58:16.173Z,0.50
